Time;durP1;ratioP1;P1;durP2;ratioP2;P2;SDS_P1;SDS_P2;PMS_P1;PMS_P2;Temp;Humidity;BMP_temperature;BMP_pressure;BME280_temperature;BME280_humidity;BME280_pressure;Samples;Min_cycle;Max_cycle;Signal;HPM_P1;HPM_P2
2023/04/08 00:00:07;;;;;;;29.83;16.00;;;7.90;99.90;;;;;;5030629;28;20045;-71
2023/04/08 00:02:33;;;;;;;30.13;16.13;;;7.90;99.90;;;;;;5031691;28;20130;-72
2023/04/08 00:04:59;;;;;;;30.08;16.67;;;7.90;99.90;;;;;;5030720;28;20565;-71
2023/04/08 00:07:24;;;;;;;32.35;16.90;;;7.90;99.90;;;;;;5031363;28;20029;-72
2023/04/08 00:09:50;;;;;;;31.20;16.90;;;7.90;99.90;;;;;;5031671;28;20046;-72
2023/04/08 00:12:15;;;;;;;30.85;17.02;;;7.90;99.90;;;;;;5031842;28;20040;-72
2023/04/08 00:14:41;;;;;;;31.60;17.00;;;7.80;99.90;;;;;;5031732;28;20033;-73
2023/04/08 00:17:06;;;;;;;27.90;16.65;;;7.80;99.90;;;;;;5031173;28;20034;-71
2023/04/08 00:19:32;;;;;;;29.83;17.55;;;7.80;99.90;;;;;;5028859;28;20018;-72
2023/04/08 00:21:59;;;;;;;32.88;17.52;;;7.80;99.90;;;;;;5029976;28;20528;-71
2023/04/08 00:24:25;;;;;;;31.75;17.35;;;7.80;99.90;;;;;;5030798;28;20032;-71
2023/04/08 00:26:51;;;;;;;32.28;17.20;;;7.80;99.90;;;;;;5029707;28;20031;-71
2023/04/08 00:29:16;;;;;;;29.83;16.83;;;7.80;99.90;;;;;;5030258;28;20029;-72
2023/04/08 00:31:42;;;;;;;35.30;16.75;;;7.80;99.90;;;;;;5031613;28;20067;-70
2023/04/08 00:34:08;;;;;;;35.58;18.05;;;7.80;99.90;;;;;;5030949;28;20037;-72
2023/04/08 00:36:35;;;;;;;31.08;17.10;;;7.80;99.90;;;;;;5030737;28;20041;-72
2023/04/08 00:39:01;;;;;;;30.48;16.52;;;7.80;99.90;;;;;;5030435;28;20038;-70
2023/04/08 00:41:26;;;;;;;32.92;17.42;;;7.90;99.90;;;;;;5030909;28;20022;-72
2023/04/08 00:43:53;;;;;;;28.95;16.38;;;7.80;99.90;;;;;;5029954;28;20039;-71
2023/04/08 00:46:20;;;;;;;32.25;17.20;;;7.80;99.90;;;;;;5031060;28;20022;-72
2023/04/08 00:48:46;;;;;;;26.40;15.48;;;7.80;99.90;;;;;;5031139;28;20523;-72
2023/04/08 00:51:12;;;;;;;28.42;15.88;;;7.80;99.90;;;;;;5031329;28;20049;-70
2023/04/08 00:53:37;;;;;;;31.20;16.77;;;7.80;99.90;;;;;;5029499;28;20021;-71
2023/04/08 00:56:03;;;;;;;30.80;15.80;;;7.80;99.90;;;;;;5031005;28;20022;-71
2023/04/08 00:58:29;;;;;;;30.23;15.32;;;7.80;99.90;;;;;;5031609;28;20034;-72
2023/04/08 01:01:22;;;;;;;32.80;14.98;;;7.80;99.90;;;;;;5030891;28;20048;-72
2023/04/08 01:04:08;;;;;;;30.15;15.48;;;7.80;99.90;;;;;;5029911;28;20076;-71
2023/04/08 01:06:57;;;;;;;27.27;14.88;;;7.70;99.90;;;;;;5030860;28;20072;-70
2023/04/08 01:09:26;;;;;;;30.77;15.48;;;7.70;99.90;;;;;;5021469;28;20058;-72
2023/04/08 01:11:55;;;;;;;28.90;14.55;;;7.70;99.90;;;;;;5030635;28;20034;-71
2023/04/08 01:14:24;;;;;;;25.20;13.75;;;7.60;99.90;;;;;;5030117;28;20025;-72
2023/04/08 01:16:49;;;;;;;25.08;13.73;;;7.60;99.90;;;;;;5030036;28;20033;-71
2023/04/08 01:19:32;;;;;;;28.52;15.13;;;7.50;99.90;;;;;;5030392;28;20030;-72
2023/04/08 01:22:18;;;;;;;28.13;14.00;;;7.50;99.90;;;;;;5030290;28;20046;-70
2023/04/08 01:24:46;;;;;;;25.90;13.73;;;7.50;99.90;;;;;;5027935;28;20029;-70
2023/04/08 01:27:13;;;;;;;26.23;13.65;;;7.50;99.90;;;;;;5028220;28;20158;-71
2023/04/08 01:29:40;;;;;;;28.17;14.60;;;7.60;99.90;;;;;;5029706;28;20041;-72
2023/04/08 01:32:07;;;;;;;30.45;15.45;;;7.50;99.90;;;;;;5029797;28;20048;-71
2023/04/08 01:34:34;;;;;;;28.85;14.77;;;7.50;99.90;;;;;;5030452;28;20029;-70
2023/04/08 01:37:01;;;;;;;27.77;14.55;;;7.60;99.90;;;;;;5030566;28;20387;-72
2023/04/08 01:39:29;;;;;;;28.88;14.68;;;7.60;99.90;;;;;;5029531;28;20045;-71
2023/04/08 01:41:57;;;;;;;31.88;15.52;;;7.60;99.90;;;;;;5030176;28;20510;-71
2023/04/08 01:44:25;;;;;;;30.90;15.65;;;7.60;99.90;;;;;;5030327;28;20053;-70
2023/04/08 01:46:52;;;;;;;32.50;15.82;;;7.60;99.90;;;;;;5030116;28;20032;-70
2023/04/08 01:49:18;;;;;;;33.88;17.38;;;7.60;99.90;;;;;;5030343;28;20076;-73
2023/04/08 01:51:45;;;;;;;30.88;16.60;;;7.60;99.90;;;;;;5030386;28;20038;-73
2023/04/08 01:54:11;;;;;;;36.15;17.20;;;7.60;99.90;;;;;;5030656;28;20018;-74
2023/04/08 01:56:40;;;;;;;33.97;17.75;;;7.60;99.90;;;;;;5030343;28;20532;-71
2023/04/08 01:59:12;;;;;;;38.50;18.60;;;7.50;99.90;;;;;;5030364;28;20037;-72
2023/04/08 02:01:38;;;;;;;38.78;19.30;;;7.50;99.90;;;;;;5029973;28;20052;-71
2023/04/08 02:04:04;;;;;;;36.13;19.08;;;7.50;99.90;;;;;;5033867;28;20029;-71
2023/04/08 02:06:30;;;;;;;36.10;19.52;;;7.50;99.90;;;;;;5033024;28;20105;-71
2023/04/08 02:08:58;;;;;;;42.72;20.80;;;7.50;99.90;;;;;;5033204;28;20065;-71
2023/04/08 02:11:24;;;;;;;42.60;21.27;;;7.50;99.90;;;;;;5034072;28;20030;-72
2023/04/08 02:13:51;;;;;;;41.88;19.85;;;7.50;99.90;;;;;;5034124;28;20017;-72
2023/04/08 02:16:43;;;;;;;47.22;21.27;;;7.50;99.90;;;;;;5032425;28;20022;-70
2023/04/08 02:19:15;;;;;;;43.88;21.08;;;7.60;99.90;;;;;;5033338;28;20026;-71
2023/04/08 02:21:46;;;;;;;50.35;23.05;;;7.60;99.90;;;;;;5034169;28;20024;-71
2023/04/08 02:24:14;;;;;;;45.08;22.27;;;7.50;99.90;;;;;;5033912;28;20034;-71
2023/04/08 02:26:42;;;;;;;47.30;22.27;;;7.50;99.90;;;;;;5031701;28;20026;-73
2023/04/08 02:29:14;;;;;;;44.50;22.00;;;7.50;99.90;;;;;;5033680;28;20049;-72
2023/04/08 02:31:41;;;;;;;48.60;23.00;;;7.50;99.90;;;;;;5033527;28;20021;-72
2023/04/08 02:34:09;;;;;;;47.15;21.80;;;7.50;99.90;;;;;;5033964;28;20566;-71
2023/04/08 02:36:35;;;;;;;48.40;21.80;;;7.50;99.90;;;;;;5032663;28;20022;-70
2023/04/08 02:39:01;;;;;;;47.33;22.30;;;7.50;99.90;;;;;;5032797;28;20065;-70
2023/04/08 02:41:28;;;;;;;47.97;22.73;;;7.50;99.90;;;;;;5033657;28;20028;-72
2023/04/08 02:43:54;;;;;;;45.20;21.83;;;7.50;99.90;;;;;;5032952;28;20026;-69
2023/04/08 02:46:20;;;;;;;46.53;21.90;;;7.50;99.90;;;;;;5033084;28;20719;-71
2023/04/08 02:48:46;;;;;;;46.35;22.45;;;7.50;99.90;;;;;;5033245;28;20048;-71
2023/04/08 02:51:11;;;;;;;47.22;22.45;;;7.50;99.90;;;;;;5032696;28;20072;-71
2023/04/08 02:53:37;;;;;;;47.05;22.30;;;7.50;99.90;;;;;;5031778;28;20030;-71
2023/04/08 02:56:02;;;;;;;42.78;21.83;;;7.50;99.90;;;;;;5033355;28;20057;-70
2023/04/08 02:58:28;;;;;;;53.97;23.70;;;7.40;99.90;;;;;;5033518;28;20136;-70
2023/04/08 03:00:54;;;;;;;46.95;21.60;;;7.30;99.90;;;;;;5033062;28;20029;-69
2023/04/08 03:03:26;;;;;;;53.92;23.30;;;7.30;99.90;;;;;;5031853;28;20028;-71
2023/04/08 03:05:52;;;;;;;45.95;22.17;;;7.30;99.90;;;;;;5033465;28;20060;-71
2023/04/08 03:08:18;;;;;;;46.33;22.67;;;7.30;99.90;;;;;;5030847;28;20050;-70
2023/04/08 03:10:44;;;;;;;48.03;22.45;;;7.40;99.90;;;;;;5031818;28;20143;-72
2023/04/08 03:13:10;;;;;;;43.53;21.30;;;7.40;99.90;;;;;;5032008;28;20486;-72
2023/04/08 03:15:35;;;;;;;44.88;22.25;;;7.40;99.90;;;;;;5032444;28;20041;-71
2023/04/08 03:18:01;;;;;;;48.33;22.40;;;7.40;99.90;;;;;;5032589;28;21006;-70
2023/04/08 03:20:26;;;;;;;45.72;21.40;;;7.40;99.90;;;;;;5032357;28;20041;-71
2023/04/08 03:22:52;;;;;;;47.20;22.67;;;7.40;99.90;;;;;;5031428;28;20021;-72
2023/04/08 03:25:17;;;;;;;47.30;21.13;;;7.40;99.90;;;;;;5030521;28;20025;-71
2023/04/08 03:27:43;;;;;;;47.88;22.38;;;7.40;99.90;;;;;;5032338;28;20032;-73
2023/04/08 03:30:09;;;;;;;43.13;20.45;;;7.40;99.90;;;;;;5032814;28;20041;-71
2023/04/08 03:32:35;;;;;;;46.92;21.98;;;7.40;99.90;;;;;;5032704;28;20030;-70
2023/04/08 03:35:00;;;;;;;44.35;20.45;;;7.40;99.90;;;;;;5032386;28;20025;-71
2023/04/08 03:37:26;;;;;;;43.00;21.20;;;7.40;99.90;;;;;;5032259;28;20017;-71
2023/04/08 03:39:53;;;;;;;44.80;21.27;;;7.40;99.90;;;;;;5031379;28;20014;-71
2023/04/08 03:42:19;;;;;;;44.13;21.30;;;7.40;99.90;;;;;;5030474;28;20056;-73
2023/04/08 03:44:45;;;;;;;45.50;21.38;;;7.40;99.90;;;;;;5032627;28;20022;-70
2023/04/08 03:47:10;;;;;;;44.17;20.58;;;7.40;99.90;;;;;;5031104;28;20025;-72
2023/04/08 03:49:36;;;;;;;40.65;20.60;;;7.40;99.90;;;;;;5032178;28;20042;-72
2023/04/08 03:52:01;;;;;;;46.53;21.48;;;7.30;99.90;;;;;;5030904;28;20611;-71
2023/04/08 03:54:27;;;;;;;43.45;21.27;;;7.40;99.90;;;;;;5032019;28;20029;-72
2023/04/08 03:56:53;;;;;;;43.60;20.38;;;7.20;99.90;;;;;;5032041;28;20022;-72
2023/04/08 03:59:18;;;;;;;39.10;19.77;;;7.30;99.90;;;;;;5031595;28;20022;-71
2023/04/08 04:01:44;;;;;;;39.83;20.58;;;7.30;99.90;;;;;;5029400;28;20029;-71
2023/04/08 04:04:09;;;;;;;42.38;21.00;;;7.30;99.90;;;;;;5031947;28;20081;-72
2023/04/08 04:06:35;;;;;;;41.60;20.85;;;7.30;99.90;;;;;;5031947;28;20044;-70
2023/04/08 04:09:01;;;;;;;43.53;20.20;;;7.30;99.90;;;;;;5032102;28;20478;-72
2023/04/08 04:11:26;;;;;;;43.58;21.92;;;7.30;99.90;;;;;;5033179;28;20646;-74
2023/04/08 04:13:52;;;;;;;43.15;21.25;;;7.30;99.90;;;;;;5031496;28;20060;-73
2023/04/08 04:16:17;;;;;;;42.60;19.77;;;7.20;99.90;;;;;;5032596;28;20022;-72
2023/04/08 04:18:43;;;;;;;42.53;20.52;;;7.30;99.90;;;;;;5032763;28;20034;-72
2023/04/08 04:21:09;;;;;;;49.28;20.55;;;7.30;99.90;;;;;;5033038;28;20029;-72
2023/04/08 04:23:34;;;;;;;41.47;20.48;;;7.30;99.90;;;;;;5032420;28;20025;-72
2023/04/08 04:26:00;;;;;;;46.75;20.67;;;7.30;99.90;;;;;;5032353;28;20076;-72
2023/04/08 04:28:26;;;;;;;49.03;20.77;;;7.30;99.90;;;;;;5032285;28;20042;-71
2023/04/08 04:30:51;;;;;;;41.28;19.55;;;7.30;99.90;;;;;;5030421;28;20038;-71
2023/04/08 04:33:17;;;;;;;41.28;20.27;;;7.30;99.90;;;;;;5032586;28;20025;-70
2023/04/08 04:35:43;;;;;;;45.47;20.13;;;7.30;99.90;;;;;;5031761;28;20093;-68
2023/04/08 04:38:09;;;;;;;43.17;20.38;;;7.30;99.90;;;;;;5030210;28;20060;-69
2023/04/08 04:40:35;;;;;;;43.10;19.45;;;7.30;99.90;;;;;;5031446;28;20096;-69
2023/04/08 04:43:01;;;;;;;46.15;20.52;;;7.30;99.90;;;;;;5031758;28;20456;-69
2023/04/08 04:45:27;;;;;;;43.05;19.38;;;7.30;99.90;;;;;;5032232;28;20030;-68
2023/04/08 04:47:52;;;;;;;41.88;19.90;;;7.20;99.90;;;;;;5031874;28;20034;-70
2023/04/08 04:50:18;;;;;;;46.25;19.98;;;7.30;99.90;;;;;;5028391;28;20125;-68
2023/04/08 04:52:43;;;;;;;46.35;19.50;;;7.20;99.90;;;;;;5030563;28;20034;-70
2023/04/08 04:55:09;;;;;;;47.92;20.23;;;7.20;99.90;;;;;;5032421;28;20386;-70
2023/04/08 04:57:35;;;;;;;40.80;19.30;;;7.30;99.90;;;;;;5030966;28;20815;-70
2023/04/08 05:00:00;;;;;;;43.08;19.50;;;7.30;99.90;;;;;;5031331;28;20034;-70
2023/04/08 05:02:26;;;;;;;44.22;19.33;;;7.40;99.90;;;;;;5030260;28;20425;-70
2023/04/08 05:04:54;;;;;;;43.13;19.73;;;7.40;99.90;;;;;;5031832;28;20053;-69
2023/04/08 05:07:21;;;;;;;37.35;18.52;;;7.40;99.90;;;;;;5031423;28;20057;-69
2023/04/08 05:09:46;;;;;;;40.58;18.55;;;7.50;99.90;;;;;;5030540;28;20042;-69
2023/04/08 05:12:12;;;;;;;41.70;19.70;;;7.40;99.90;;;;;;5031973;28;20113;-69
2023/04/08 05:14:38;;;;;;;40.80;18.88;;;7.40;99.90;;;;;;5032194;28;20108;-69
2023/04/08 05:17:04;;;;;;;37.42;18.65;;;7.40;99.90;;;;;;5031895;28;20022;-69
2023/04/08 05:19:30;;;;;;;44.30;19.30;;;7.40;99.90;;;;;;5030050;28;20483;-69
2023/04/08 05:21:55;;;;;;;47.67;19.38;;;7.40;99.90;;;;;;5031109;28;20052;-69
2023/04/08 05:24:21;;;;;;;39.55;18.27;;;7.50;99.90;;;;;;5029185;28;20029;-69
2023/04/08 05:26:51;;;;;;;40.42;19.08;;;7.50;99.90;;;;;;5030498;28;20462;-69
2023/04/08 05:29:17;;;;;;;42.78;19.58;;;7.50;99.90;;;;;;5031753;28;20034;-70
2023/04/08 05:31:43;;;;;;;44.63;19.80;;;7.50;99.90;;;;;;5029994;28;20116;-70
2023/04/08 05:34:10;;;;;;;41.80;18.48;;;7.40;99.90;;;;;;5028975;28;20093;-69
2023/04/08 05:36:35;;;;;;;39.20;18.15;;;7.40;99.90;;;;;;5031834;28;20030;-69
2023/04/08 05:39:01;;;;;;;42.35;18.90;;;7.40;99.90;;;;;;5035096;28;20021;-69
2023/04/08 05:41:27;;;;;;;41.58;19.65;;;7.40;99.90;;;;;;5035993;28;20490;-69
2023/04/08 05:43:52;;;;;;;42.33;19.15;;;7.50;99.90;;;;;;5035628;28;20018;-69
2023/04/08 05:46:18;;;;;;;41.03;18.40;;;7.40;99.90;;;;;;5035762;28;20029;-70
2023/04/08 05:48:43;;;;;;;52.95;19.48;;;7.40;99.90;;;;;;5035656;28;20112;-69
2023/04/08 05:51:16;;;;;;;39.33;19.27;;;7.40;99.90;;;;;;5035533;28;20546;-69
2023/04/08 05:53:44;;;;;;;37.83;18.50;;;7.40;99.90;;;;;;5035623;28;21473;-69
2023/04/08 05:56:10;;;;;;;41.88;21.02;;;7.40;99.90;;;;;;5035484;28;20021;-68
2023/04/08 05:58:35;;;;;;;41.53;20.80;;;7.40;99.90;;;;;;5035173;28;20025;-69
2023/04/08 06:01:01;;;;;;;44.05;21.23;;;7.40;99.90;;;;;;5034070;28;20033;-69
2023/04/08 06:03:26;;;;;;;44.50;21.52;;;7.40;99.90;;;;;;5034401;28;20033;-68
2023/04/08 06:05:52;;;;;;;47.25;22.80;;;7.40;99.90;;;;;;5035172;28;20085;-68
2023/04/08 06:08:17;;;;;;;49.83;22.33;;;7.40;99.90;;;;;;5035255;28;20061;-69
2023/04/08 06:10:50;;;;;;;47.10;21.48;;;7.40;99.90;;;;;;5033676;28;20042;-69
2023/04/08 06:13:16;;;;;;;41.55;20.73;;;7.40;99.90;;;;;;5035527;28;20026;-69
2023/04/08 06:15:42;;;;;;;40.55;19.73;;;7.40;99.90;;;;;;5033512;28;20095;-70
2023/04/08 06:18:07;;;;;;;41.63;19.92;;;7.40;99.90;;;;;;5034932;28;20080;-69
2023/04/08 06:20:34;;;;;;;43.40;19.50;;;7.40;99.90;;;;;;5034036;28;20512;-68
2023/04/08 06:23:00;;;;;;;42.75;20.35;;;7.40;99.90;;;;;;5035072;28;20518;-69
2023/04/08 06:25:26;;;;;;;41.65;20.25;;;7.40;99.90;;;;;;5034919;28;20029;-69
2023/04/08 06:27:51;;;;;;;43.88;20.90;;;7.50;99.90;;;;;;5034743;28;20018;-70
2023/04/08 06:30:17;;;;;;;47.55;20.88;;;7.50;99.90;;;;;;5035066;28;20033;-70
2023/04/08 06:32:46;;;;;;;50.65;22.02;;;7.50;99.90;;;;;;5035164;28;20022;-69
2023/04/08 06:35:11;;;;;;;49.78;21.90;;;7.50;99.90;;;;;;5034886;28;20022;-70
2023/04/08 06:37:37;;;;;;;43.03;21.75;;;7.50;99.90;;;;;;5034662;28;20080;-70
2023/04/08 06:40:04;;;;;;;43.15;20.80;;;7.60;99.90;;;;;;5033481;28;20482;-68
2023/04/08 06:42:30;;;;;;;40.33;20.48;;;7.50;99.90;;;;;;5034020;28;20054;-69
2023/04/08 06:44:56;;;;;;;41.50;20.15;;;7.60;99.90;;;;;;5033342;28;20038;-69
2023/04/08 06:47:22;;;;;;;40.63;21.05;;;7.50;99.90;;;;;;5032881;28;20030;-69
2023/04/08 06:49:48;;;;;;;42.05;19.95;;;7.60;99.90;;;;;;5034580;28;20128;-70
2023/04/08 06:52:14;;;;;;;39.00;20.33;;;7.60;99.90;;;;;;5034437;28;20121;-70
2023/04/08 06:54:40;;;;;;;39.47;20.13;;;7.60;99.90;;;;;;5033189;28;20464;-69
2023/04/08 06:57:08;;;;;;;43.28;20.40;;;7.60;99.90;;;;;;5034483;28;20029;-69
2023/04/08 06:59:34;;;;;;;38.72;19.83;;;7.70;99.90;;;;;;5033995;28;20022;-68
2023/04/08 07:02:00;;;;;;;41.05;19.25;;;7.70;99.90;;;;;;5033996;28;20057;-68
2023/04/08 07:04:25;;;;;;;41.28;19.65;;;7.80;99.90;;;;;;5031620;28;20017;-70
2023/04/08 07:06:51;;;;;;;38.03;18.85;;;7.80;99.90;;;;;;5032576;28;20510;-69
2023/04/08 07:09:17;;;;;;;37.05;18.83;;;7.90;99.90;;;;;;5034068;28;20045;-70
2023/04/08 07:11:43;;;;;;;36.83;18.13;;;7.90;99.90;;;;;;5031521;28;20030;-69
2023/04/08 07:14:09;;;;;;;39.95;19.77;;;7.90;99.90;;;;;;5032969;28;20034;-68
2023/04/08 07:16:34;;;;;;;46.03;19.75;;;8.00;99.90;;;;;;5033806;28;20018;-70
2023/04/08 07:19:00;;;;;;;40.80;19.35;;;8.00;99.90;;;;;;5033729;28;20013;-69
2023/04/08 07:21:26;;;;;;;37.97;19.00;;;8.10;99.90;;;;;;5034066;28;20037;-70
2023/04/08 07:23:52;;;;;;;35.72;18.80;;;8.00;99.90;;;;;;5033762;28;20029;-68
2023/04/08 07:26:18;;;;;;;51.70;20.17;;;8.00;99.90;;;;;;5033868;28;20033;-69
2023/04/08 07:28:43;;;;;;;42.80;19.13;;;8.10;99.90;;;;;;5033767;28;20033;-69
2023/04/08 07:31:15;;;;;;;39.00;19.05;;;8.00;99.90;;;;;;5033141;28;20064;-69
2023/04/08 07:33:41;;;;;;;50.60;18.40;;;8.10;99.90;;;;;;5032999;28;20028;-70
2023/04/08 07:36:09;;;;;;;44.13;19.13;;;8.10;99.90;;;;;;5032584;28;20029;-70
2023/04/08 07:38:35;;;;;;;38.45;19.38;;;8.10;99.90;;;;;;5032432;28;20030;-70
2023/04/08 07:41:01;;;;;;;50.22;19.52;;;8.10;99.90;;;;;;5029287;28;20036;-70
2023/04/08 07:43:27;;;;;;;37.70;19.02;;;8.10;99.90;;;;;;5031761;28;20030;-69
2023/04/08 07:45:53;;;;;;;37.00;18.45;;;8.10;99.90;;;;;;5032462;28;20449;-70
2023/04/08 07:48:23;;;;;;;34.80;19.45;;;8.20;99.90;;;;;;5032066;28;20052;-69
2023/04/08 07:50:49;;;;;;;35.17;19.30;;;8.20;99.90;;;;;;5032820;28;20063;-69
2023/04/08 07:53:14;;;;;;;35.30;19.77;;;8.10;99.90;;;;;;5027170;28;20060;-69
2023/04/08 07:55:41;;;;;;;40.13;19.58;;;8.10;99.90;;;;;;5032799;28;20494;-70
2023/04/08 07:58:06;;;;;;;39.90;20.02;;;8.20;99.90;;;;;;5030265;28;20030;-70
2023/04/08 08:00:32;;;;;;;37.70;19.58;;;8.20;99.90;;;;;;5028543;28;20028;-70
2023/04/08 08:02:57;;;;;;;34.53;19.50;;;8.30;99.90;;;;;;5032986;28;20033;-69
2023/04/08 08:05:23;;;;;;;40.45;19.25;;;8.30;99.90;;;;;;5032439;28;20028;-69
2023/04/08 08:07:49;;;;;;;38.15;20.50;;;8.40;99.90;;;;;;5033234;28;20030;-69
2023/04/08 08:10:15;;;;;;;41.33;20.65;;;8.50;99.90;;;;;;5033804;28;20320;-69
2023/04/08 08:12:40;;;;;;;45.40;21.15;;;8.50;99.90;;;;;;5032962;28;20406;-69
2023/04/08 08:15:07;;;;;;;37.58;20.30;;;8.60;99.90;;;;;;5032763;28;20884;-69
2023/04/08 08:17:32;;;;;;;43.30;22.38;;;8.70;99.90;;;;;;5032876;28;20025;-70
2023/04/08 08:19:59;;;;;;;45.40;21.67;;;8.70;99.90;;;;;;5032164;28;20084;-68
2023/04/08 08:22:25;;;;;;;39.33;22.02;;;8.70;99.90;;;;;;5032456;28;20029;-69
2023/04/08 08:24:58;;;;;;;40.70;21.98;;;8.70;99.90;;;;;;5032672;28;20104;-69
2023/04/08 08:27:24;;;;;;;41.40;21.77;;;8.70;99.90;;;;;;5032804;28;20383;-70
2023/04/08 08:29:53;;;;;;;43.53;22.20;;;8.60;99.90;;;;;;5030217;28;20030;-69
2023/04/08 08:32:18;;;;;;;43.35;22.40;;;8.50;99.90;;;;;;5031044;28;20060;-70
2023/04/08 08:34:44;;;;;;;41.38;23.35;;;8.50;99.90;;;;;;5030985;28;20025;-69
2023/04/08 08:37:10;;;;;;;43.72;22.52;;;8.50;99.90;;;;;;5031704;28;20048;-70
2023/04/08 08:39:35;;;;;;;45.78;22.70;;;8.50;99.90;;;;;;5029729;28;20053;-69
2023/04/08 08:42:01;;;;;;;42.92;23.98;;;8.50;99.90;;;;;;5032213;28;20029;-70
2023/04/08 08:44:27;;;;;;;41.08;23.65;;;8.50;99.90;;;;;;5029680;28;20048;-68
2023/04/08 08:46:52;;;;;;;43.78;23.02;;;8.50;99.90;;;;;;5032816;28;20021;-69
2023/04/08 08:49:18;;;;;;;43.72;23.98;;;8.50;99.90;;;;;;5028061;28;20022;-70
2023/04/08 08:51:48;;;;;;;47.67;24.52;;;8.60;99.90;;;;;;5032298;28;20037;-70
2023/04/08 08:54:14;;;;;;;45.63;24.83;;;8.60;99.90;;;;;;5032143;28;20394;-69
2023/04/08 08:56:42;;;;;;;47.65;25.52;;;8.70;99.90;;;;;;5032236;28;20018;-70
2023/04/08 08:59:08;;;;;;;46.80;23.90;;;8.70;99.90;;;;;;5029803;28;20022;-70
2023/04/08 09:01:36;;;;;;;46.88;24.27;;;8.80;99.90;;;;;;5029120;28;20029;-69
2023/04/08 09:04:17;;;;;;;43.85;24.95;;;8.80;99.90;;;;;;5029859;28;20018;-69
2023/04/08 09:06:45;;;;;;;52.90;24.58;;;8.80;99.90;;;;;;5024251;28;20037;-69
2023/04/08 09:09:11;;;;;;;60.70;25.52;;;8.80;99.90;;;;;;5029744;28;20072;-70
2023/04/08 09:11:41;;;;;;;43.00;24.50;;;8.80;99.90;;;;;;5029673;28;20506;-70
2023/04/08 09:14:24;;;;;;;47.15;25.40;;;8.80;99.90;;;;;;5029512;28;21228;-70
2023/04/08 09:16:51;;;;;;;44.97;23.38;;;8.80;99.90;;;;;;5027309;28;20053;-70
2023/04/08 09:19:17;;;;;;;43.58;23.60;;;8.90;99.90;;;;;;5024982;28;20840;-69
2023/04/08 09:21:43;;;;;;;43.45;22.38;;;8.90;99.90;;;;;;5031905;28;20892;-70
2023/04/08 09:24:25;;;;;;;49.78;25.50;;;8.90;99.90;;;;;;5029856;28;20026;-70
2023/04/08 09:26:51;;;;;;;49.88;25.13;;;8.80;99.90;;;;;;5027199;28;20125;-70
2023/04/08 09:29:16;;;;;;;52.63;25.70;;;8.90;99.90;;;;;;5031975;28;20496;-69
2023/04/08 09:31:42;;;;;;;47.33;24.00;;;8.80;99.90;;;;;;5030169;28;20030;-69
2023/04/08 09:34:14;;;;;;;52.80;25.50;;;8.90;99.90;;;;;;5030448;28;20041;-70
2023/04/08 09:36:39;;;;;;;52.60;25.77;;;8.90;99.90;;;;;;5031630;28;20099;-70
2023/04/08 09:39:05;;;;;;;54.75;24.98;;;8.90;99.90;;;;;;5028214;28;20053;-71
2023/04/08 09:41:35;;;;;;;53.72;25.00;;;8.90;99.90;;;;;;5029934;28;20036;-69
2023/04/08 09:44:04;;;;;;;51.22;24.23;;;8.90;99.90;;;;;;5028531;28;20025;-72
2023/04/08 09:46:40;;;;;;;48.35;23.85;;;8.90;99.90;;;;;;5030165;28;20021;-72
2023/04/08 09:49:09;;;;;;;46.08;22.63;;;8.80;99.90;;;;;;5027649;28;20034;-70
2023/04/08 09:52:06;;;;;;;43.33;21.85;;;8.90;99.90;;;;;;5030168;28;20037;-71
2023/04/08 09:54:39;;;;;;;47.00;22.88;;;8.90;99.90;;;;;;5025080;28;20120;-71
2023/04/08 09:57:32;;;;;;;47.28;22.83;;;9.00;99.90;;;;;;5029878;28;20029;-70
2023/04/08 10:00:06;;;;;;;48.63;23.27;;;9.00;99.90;;;;;;5022350;28;20038;-70
2023/04/08 10:02:41;;;;;;;49.95;23.55;;;9.10;99.90;;;;;;5030995;28;20021;-70
2023/04/08 10:05:08;;;;;;;45.25;23.10;;;9.10;99.90;;;;;;5031381;28;20034;-70
2023/04/08 10:07:34;;;;;;;44.00;22.55;;;9.10;99.90;;;;;;5029882;28;20026;-70
2023/04/08 10:10:01;;;;;;;47.53;23.33;;;9.20;99.90;;;;;;5029670;28;20454;-69
2023/04/08 10:12:27;;;;;;;44.65;22.40;;;9.20;99.90;;;;;;5027988;28;20041;-70
2023/04/08 10:15:26;;;;;;;43.22;21.75;;;9.20;99.90;;;;;;5030015;28;20052;-70
2023/04/08 10:18:18;;;;;;;42.00;20.80;;;9.30;99.90;;;;;;5026366;28;20064;-71
2023/04/08 10:20:44;;;;;;;44.95;22.10;;;9.30;99.90;;;;;;5029929;28;20026;-73
2023/04/08 10:23:13;;;;;;;43.55;21.80;;;9.40;99.90;;;;;;5031031;28;20029;-70
2023/04/08 10:25:43;;;;;;;51.08;23.23;;;9.40;99.90;;;;;;5031698;28;20078;-69
2023/04/08 10:28:12;;;;;;;45.03;22.10;;;9.50;99.90;;;;;;5029892;28;20029;-71
2023/04/08 10:30:45;;;;;;;48.47;23.20;;;9.50;99.90;;;;;;5050468;28;20120;-70
2023/04/08 10:33:28;;;;;;;44.85;21.90;;;9.40;99.90;;;;;;5033714;28;20021;-69
2023/04/08 10:36:08;;;;;;;46.95;23.55;;;9.40;99.90;;;;;;5032687;28;20025;-70
2023/04/08 10:38:34;;;;;;;55.83;23.67;;;9.50;99.90;;;;;;5032650;28;20043;-70
2023/04/08 10:41:01;;;;;;;50.40;24.23;;;9.50;99.90;;;;;;5032519;28;20080;-69
2023/04/08 10:43:34;;;;;;;45.97;22.85;;;9.50;99.90;;;;;;5033299;28;20032;-71
2023/04/08 10:46:00;;;;;;;47.65;22.80;;;9.50;99.90;;;;;;5028960;28;20030;-70
2023/04/08 10:48:28;;;;;;;45.75;23.10;;;9.50;99.90;;;;;;5028550;28;20030;-70
2023/04/08 10:51:01;;;;;;;46.45;22.52;;;9.50;99.90;;;;;;5032854;28;20540;-70
2023/04/08 10:53:34;;;;;;;43.67;22.63;;;9.50;99.90;;;;;;5028906;28;20034;-70
2023/04/08 10:56:11;;;;;;;47.30;23.45;;;9.60;99.90;;;;;;5034514;28;20026;-70
2023/04/08 10:58:55;;;;;;;49.78;24.35;;;9.60;99.90;;;;;;5034109;28;20025;-70
2023/04/08 11:01:21;;;;;;;48.78;23.42;;;9.70;99.90;;;;;;5032831;28;20026;-69
2023/04/08 11:03:47;;;;;;;43.78;23.13;;;9.70;99.90;;;;;;5033402;28;20026;-69
2023/04/08 11:06:14;;;;;;;42.40;22.27;;;9.80;99.90;;;;;;5033247;28;20033;-71
2023/04/08 11:08:40;;;;;;;42.67;22.65;;;9.90;99.90;;;;;;5034683;28;20048;-70
2023/04/08 11:11:10;;;;;;;47.42;23.08;;;9.90;99.90;;;;;;5033345;28;20401;-69
2023/04/08 11:13:38;;;;;;;46.95;24.00;;;10.00;99.90;;;;;;5034351;28;20022;-69
2023/04/08 11:16:06;;;;;;;49.65;25.13;;;10.20;99.90;;;;;;5033662;28;20026;-69
2023/04/08 11:18:34;;;;;;;48.42;24.80;;;10.20;99.90;;;;;;5034028;28;20030;-70
2023/04/08 11:21:00;;;;;;;48.10;24.10;;;10.30;99.90;;;;;;5032852;28;20057;-69
2023/04/08 11:23:26;;;;;;;49.13;23.40;;;10.30;99.90;;;;;;5034324;28;20436;-70
2023/04/08 11:25:52;;;;;;;50.00;24.42;;;10.30;99.90;;;;;;5034175;28;20017;-70
2023/04/08 11:28:18;;;;;;;72.30;25.83;;;10.20;99.90;;;;;;5033072;28;20468;-70
2023/04/08 11:30:44;;;;;;;52.15;24.90;;;10.20;99.90;;;;;;5033294;28;20395;-70
2023/04/08 11:33:11;;;;;;;49.63;25.05;;;10.30;99.90;;;;;;5030268;28;20026;-70
2023/04/08 11:35:41;;;;;;;50.95;25.85;;;10.30;99.90;;;;;;5032403;28;20040;-70
2023/04/08 11:38:07;;;;;;;51.70;24.73;;;10.30;99.90;;;;;;5033183;28;20425;-70
2023/04/08 11:40:33;;;;;;;53.67;26.20;;;10.30;99.90;;;;;;5032199;28;20026;-69
2023/04/08 11:43:07;;;;;;;52.13;25.25;;;10.30;99.90;;;;;;5032188;28;20063;-70
2023/04/08 11:45:40;;;;;;;55.92;26.35;;;10.30;99.90;;;;;;5031979;28;20021;-70
2023/04/08 11:48:11;;;;;;;55.58;25.75;;;10.30;99.90;;;;;;5031898;28;20041;-70
2023/04/08 11:50:40;;;;;;;55.78;26.25;;;10.30;99.90;;;;;;5033214;28;20046;-69
2023/04/08 11:53:24;;;;;;;50.80;25.25;;;10.30;99.90;;;;;;5025456;28;20026;-70
2023/04/08 11:55:49;;;;;;;44.10;24.27;;;10.30;99.90;;;;;;5027385;28;20056;-70
2023/04/08 11:58:16;;;;;;;45.17;23.48;;;10.40;99.90;;;;;;5031950;28;20022;-69
2023/04/08 12:00:42;;;;;;;44.88;22.80;;;10.40;99.90;;;;;;5029904;28;20067;-72
2023/04/08 12:03:08;;;;;;;44.22;22.65;;;10.50;99.90;;;;;;5033649;28;20018;-71
2023/04/08 12:05:34;;;;;;;45.97;23.15;;;10.60;99.90;;;;;;5029616;28;20065;-69
2023/04/08 12:08:00;;;;;;;42.20;22.05;;;10.60;99.90;;;;;;5032760;28;20022;-68
2023/04/08 12:10:25;;;;;;;44.58;23.75;;;10.60;99.90;;;;;;5030458;28;20033;-70
2023/04/08 12:12:51;;;;;;;48.65;24.08;;;10.70;99.90;;;;;;5032337;28;20040;-71
2023/04/08 12:15:17;;;;;;;46.22;23.65;;;10.80;99.90;;;;;;5030413;28;20032;-70
2023/04/08 12:17:43;;;;;;;43.55;23.90;;;10.80;99.90;;;;;;5031652;28;20030;-70
2023/04/08 12:20:10;;;;;;;44.15;23.35;;;10.80;99.90;;;;;;5032351;28;20064;-70
2023/04/08 12:22:35;;;;;;;51.17;23.33;;;11.00;99.90;;;;;;5032363;28;20030;-69
2023/04/08 12:25:02;;;;;;;44.10;23.48;;;11.00;99.90;;;;;;5032361;28;20040;-69
2023/04/08 12:27:28;;;;;;;44.33;23.88;;;11.00;99.90;;;;;;5031679;28;20049;-69
2023/04/08 12:29:54;;;;;;;43.05;24.55;;;11.00;99.90;;;;;;5031771;28;20046;-69
2023/04/08 12:32:20;;;;;;;47.45;24.38;;;11.00;99.90;;;;;;5032225;28;20064;-69
2023/04/08 12:34:46;;;;;;;46.10;24.92;;;11.00;99.90;;;;;;5030917;28;20014;-72
2023/04/08 12:37:11;;;;;;;43.35;24.00;;;11.00;99.90;;;;;;5032497;28;20537;-70